Time;durP1;ratioP1;P1;durP2;ratioP2;P2;SDS_P1;SDS_P2;PMS_P1;PMS_P2;Temp;Humidity;BMP_temperature;BMP_pressure;BME280_temperature;BME280_humidity;BME280_pressure;Samples;Min_cycle;Max_cycle;Signal;HPM_P1;HPM_P2
2023/06/29 00:01:55;;;;;;;35.03;23.08;;;19.50;99.90;;;;;;5023526;28;20029;-60
2023/06/29 00:04:21;;;;;;;34.45;22.63;;;19.50;99.90;;;;;;5032546;28;20030;-60
2023/06/29 00:06:46;;;;;;;28.85;21.80;;;19.50;99.90;;;;;;5031946;28;20049;-60
2023/06/29 00:09:12;;;;;;;36.30;22.75;;;19.40;99.90;;;;;;5025630;28;20076;-60
2023/06/29 00:11:38;;;;;;;38.05;23.35;;;19.50;99.90;;;;;;5034063;28;20506;-60
2023/06/29 00:14:04;;;;;;;39.25;23.95;;;19.40;99.90;;;;;;5031607;28;20053;-60
2023/06/29 00:16:30;;;;;;;34.70;23.15;;;19.50;99.90;;;;;;5032341;28;20471;-60
2023/06/29 00:18:56;;;;;;;34.80;23.75;;;19.40;99.90;;;;;;5031252;28;20553;-59
2023/06/29 00:21:22;;;;;;;37.78;24.10;;;19.50;99.90;;;;;;5033871;28;20042;-59
2023/06/29 00:23:47;;;;;;;35.20;22.48;;;19.40;99.90;;;;;;5024428;28;20125;-60
2023/06/29 00:26:13;;;;;;;36.17;23.17;;;19.40;99.90;;;;;;5033076;28;20471;-60
2023/06/29 00:28:39;;;;;;;32.60;23.80;;;19.40;99.90;;;;;;5030730;28;20037;-60
2023/06/29 00:31:05;;;;;;;41.95;24.15;;;19.40;99.90;;;;;;5032615;28;20405;-59
2023/06/29 00:33:31;;;;;;;35.83;23.08;;;19.40;99.90;;;;;;5032192;28;20045;-59
2023/06/29 00:35:57;;;;;;;38.17;23.90;;;19.40;99.90;;;;;;5033208;28;20041;-60
2023/06/29 00:38:22;;;;;;;35.50;23.63;;;19.40;99.90;;;;;;5027662;28;20038;-60
2023/06/29 00:40:48;;;;;;;33.28;22.63;;;19.40;99.90;;;;;;5029930;28;20065;-60
2023/06/29 00:43:14;;;;;;;35.95;23.30;;;19.40;99.90;;;;;;5032638;28;20043;-60
2023/06/29 00:45:40;;;;;;;32.45;21.98;;;19.40;99.90;;;;;;5030789;28;20109;-60
2023/06/29 00:48:06;;;;;;;36.25;24.23;;;19.40;99.90;;;;;;5030713;28;20099;-60
2023/06/29 00:50:32;;;;;;;34.95;22.45;;;19.40;99.90;;;;;;5024270;28;20038;-60
2023/06/29 00:52:58;;;;;;;31.48;21.92;;;19.30;99.90;;;;;;5030793;28;20042;-60
2023/06/29 00:55:24;;;;;;;38.47;23.92;;;19.40;99.90;;;;;;5031860;28;20056;-60
2023/06/29 00:57:49;;;;;;;34.00;23.35;;;19.30;99.90;;;;;;5023513;28;20041;-60
2023/06/29 01:00:15;;;;;;;35.83;23.15;;;19.40;99.90;;;;;;5026912;28;20037;-60
2023/06/29 01:02:41;;;;;;;33.40;23.40;;;19.30;99.90;;;;;;5029076;28;20399;-60
2023/06/29 01:05:12;;;;;;;36.28;22.95;;;19.30;99.90;;;;;;5030636;28;20381;-60
2023/06/29 01:07:43;;;;;;;36.30;23.38;;;19.30;99.90;;;;;;5031856;28;20041;-60
2023/06/29 01:10:10;;;;;;;34.67;22.45;;;19.30;99.90;;;;;;5023178;28;20045;-60
2023/06/29 01:12:38;;;;;;;36.70;23.25;;;19.30;99.90;;;;;;5029642;28;20048;-60
2023/06/29 01:15:05;;;;;;;31.67;22.65;;;19.30;99.90;;;;;;5027495;28;20114;-60
2023/06/29 01:17:32;;;;;;;30.73;22.23;;;19.30;99.90;;;;;;5021967;28;20041;-60
2023/06/29 01:19:59;;;;;;;35.33;23.52;;;19.30;99.90;;;;;;5029173;28;20087;-60
2023/06/29 01:22:34;;;;;;;35.60;23.83;;;19.30;99.90;;;;;;5032640;28;20038;-60
2023/06/29 01:25:00;;;;;;;36.05;23.63;;;19.30;99.90;;;;;;5028917;28;20044;-60
2023/06/29 01:27:26;;;;;;;34.75;23.20;;;19.30;99.90;;;;;;5027860;28;20033;-60
2023/06/29 01:29:55;;;;;;;32.30;21.75;;;19.30;99.90;;;;;;5028272;28;20439;-59
2023/06/29 01:32:21;;;;;;;29.13;21.30;;;19.30;99.90;;;;;;5032021;28;20080;-60
2023/06/29 01:34:47;;;;;;;31.83;23.00;;;19.30;99.90;;;;;;5026161;28;20037;-60
2023/06/29 01:37:21;;;;;;;34.35;23.67;;;19.20;99.90;;;;;;5026741;28;20068;-60
2023/06/29 01:39:49;;;;;;;33.92;22.58;;;19.30;99.90;;;;;;5028898;28;20029;-60
2023/06/29 01:42:16;;;;;;;34.05;22.73;;;19.20;99.90;;;;;;5024969;28;20037;-61
2023/06/29 01:44:42;;;;;;;32.78;23.25;;;19.20;99.90;;;;;;5030702;28;20025;-61
2023/06/29 01:47:09;;;;;;;34.33;22.15;;;19.20;99.90;;;;;;5023217;28;20049;-60
2023/06/29 01:49:35;;;;;;;33.15;21.88;;;19.20;99.90;;;;;;5023567;28;20447;-60
2023/06/29 01:52:02;;;;;;;29.42;23.02;;;19.20;99.90;;;;;;5020930;28;20086;-60
2023/06/29 01:54:28;;;;;;;30.55;23.00;;;19.20;99.90;;;;;;5017822;28;20042;-60
2023/06/29 01:56:54;;;;;;;34.15;23.20;;;19.20;99.90;;;;;;5021086;28;20045;-60
2023/06/29 01:59:19;;;;;;;29.40;22.02;;;19.10;99.90;;;;;;5031315;28;20029;-60
2023/06/29 02:01:45;;;;;;;32.30;23.30;;;19.10;99.90;;;;;;5029300;28;20065;-60
2023/06/29 02:04:10;;;;;;;31.67;22.65;;;19.10;99.90;;;;;;5031151;28;20049;-60
2023/06/29 02:06:36;;;;;;;32.42;23.08;;;19.10;99.90;;;;;;5024141;28;20396;-59
2023/06/29 02:09:02;;;;;;;30.38;22.52;;;19.10;99.90;;;;;;5018752;28;20112;-60
2023/06/29 02:11:27;;;;;;;32.80;22.88;;;19.10;99.90;;;;;;5030751;28;20045;-60
2023/06/29 02:13:53;;;;;;;32.20;22.77;;;19.00;99.90;;;;;;5027958;28;20040;-60
2023/06/29 02:16:19;;;;;;;33.10;22.65;;;19.10;99.90;;;;;;5028985;28;20041;-60
2023/06/29 02:18:44;;;;;;;33.05;23.38;;;19.00;99.90;;;;;;5029360;28;20517;-60
2023/06/29 02:21:10;;;;;;;30.35;22.83;;;19.10;99.90;;;;;;5030403;28;20033;-59
2023/06/29 02:23:35;;;;;;;34.47;22.42;;;19.00;99.90;;;;;;5029641;28;20037;-59
2023/06/29 02:26:01;;;;;;;32.28;23.13;;;19.10;99.90;;;;;;5025670;28;20418;-60
2023/06/29 02:28:27;;;;;;;38.80;23.25;;;19.00;99.90;;;;;;5030094;28;20037;-60
2023/06/29 02:30:52;;;;;;;29.23;22.38;;;19.00;99.90;;;;;;5030873;28;20080;-60
2023/06/29 02:33:18;;;;;;;33.33;22.27;;;19.00;99.90;;;;;;5029291;28;20395;-60
2023/06/29 02:35:44;;;;;;;31.48;22.88;;;19.00;99.90;;;;;;5025447;28;20042;-59
2023/06/29 02:38:09;;;;;;;30.50;21.63;;;19.00;99.90;;;;;;5026476;28;20042;-60
2023/06/29 02:40:35;;;;;;;33.05;22.40;;;19.00;99.90;;;;;;5029456;28;20041;-60
2023/06/29 02:43:00;;;;;;;38.33;22.58;;;19.00;99.90;;;;;;5028761;28;20034;-60
2023/06/29 02:45:26;;;;;;;33.30;22.83;;;19.00;99.90;;;;;;5026700;28;20046;-59
2023/06/29 02:47:51;;;;;;;32.53;24.15;;;19.00;99.90;;;;;;5029425;28;20557;-60
2023/06/29 02:50:17;;;;;;;31.35;21.75;;;19.00;99.90;;;;;;5020073;28;20034;-60
2023/06/29 02:52:43;;;;;;;34.70;22.33;;;19.00;99.90;;;;;;5026409;28;20514;-60
2023/06/29 02:55:08;;;;;;;34.38;22.70;;;19.00;99.90;;;;;;5025332;28;20065;-59
2023/06/29 02:57:34;;;;;;;34.05;22.25;;;19.00;99.90;;;;;;5028811;28;20037;-60
2023/06/29 02:59:59;;;;;;;30.23;22.23;;;19.00;99.90;;;;;;5029622;28;20034;-60
2023/06/29 03:02:25;;;;;;;32.53;22.13;;;19.00;99.90;;;;;;5024771;28;20038;-60
2023/06/29 03:04:51;;;;;;;34.05;22.00;;;19.00;99.90;;;;;;5022671;28;20466;-60
2023/06/29 03:07:16;;;;;;;34.70;22.90;;;19.00;99.90;;;;;;5030549;28;20037;-60
2023/06/29 03:09:42;;;;;;;37.00;22.58;;;19.00;99.90;;;;;;5030051;28;20040;-59
2023/06/29 03:12:09;;;;;;;36.25;22.13;;;19.00;99.90;;;;;;5028083;28;20041;-60
2023/06/29 03:14:35;;;;;;;30.67;22.73;;;19.00;99.90;;;;;;5029956;28;20112;-60
2023/06/29 03:17:00;;;;;;;29.90;21.85;;;19.00;99.90;;;;;;5031109;28;20574;-60
2023/06/29 03:19:26;;;;;;;33.92;23.08;;;19.00;99.90;;;;;;5030390;28;20039;-60
2023/06/29 03:21:53;;;;;;;35.50;22.58;;;19.00;99.90;;;;;;5022682;28;20045;-60
2023/06/29 03:24:18;;;;;;;35.70;23.90;;;19.00;99.90;;;;;;5030294;28;20033;-60
2023/06/29 03:26:44;;;;;;;37.38;23.38;;;19.00;99.90;;;;;;5029733;28;20092;-60
2023/06/29 03:29:10;;;;;;;35.03;22.33;;;19.00;99.90;;;;;;5029632;28;20041;-60
2023/06/29 03:31:35;;;;;;;33.10;22.38;;;19.00;99.90;;;;;;5028780;28;20116;-60
2023/06/29 03:34:01;;;;;;;31.92;22.42;;;19.00;99.90;;;;;;5024581;28;20044;-60
2023/06/29 03:36:26;;;;;;;33.20;23.30;;;19.00;99.90;;;;;;5023579;28;20445;-60
2023/06/29 03:38:52;;;;;;;31.33;22.35;;;19.00;99.90;;;;;;5029971;28;20399;-60
2023/06/29 03:41:18;;;;;;;34.72;22.58;;;19.00;99.90;;;;;;5032816;28;20033;-60
2023/06/29 03:43:43;;;;;;;35.58;23.55;;;19.00;99.90;;;;;;5028645;28;20060;-60
2023/06/29 03:46:09;;;;;;;37.28;24.30;;;19.00;99.90;;;;;;5031698;28;20030;-60
2023/06/29 03:48:36;;;;;;;33.58;22.58;;;19.00;99.90;;;;;;5033513;28;20037;-60
2023/06/29 03:51:01;;;;;;;37.38;24.33;;;19.00;99.90;;;;;;5026959;28;20406;-60
2023/06/29 03:53:27;;;;;;;34.78;22.95;;;19.10;99.90;;;;;;5027047;28;20112;-60
2023/06/29 03:55:53;;;;;;;37.65;24.48;;;19.10;99.90;;;;;;5032215;28;20080;-60
2023/06/29 03:58:18;;;;;;;36.88;24.50;;;19.10;99.90;;;;;;5029858;28;20479;-60
2023/06/29 04:00:44;;;;;;;34.83;24.55;;;19.10;99.90;;;;;;5032549;28;20112;-60
2023/06/29 04:03:10;;;;;;;34.97;23.83;;;19.10;99.90;;;;;;5028769;28;20029;-60
2023/06/29 04:05:36;;;;;;;35.05;23.92;;;19.10;99.90;;;;;;5028138;28;20029;-60
2023/06/29 04:08:04;;;;;;;35.63;24.08;;;19.20;99.90;;;;;;5024708;28;20052;-60
2023/06/29 04:10:30;;;;;;;37.90;25.00;;;19.10;99.90;;;;;;5029603;28;20048;-60
2023/06/29 04:12:55;;;;;;;39.85;24.20;;;19.20;99.90;;;;;;5026748;28;20041;-60
2023/06/29 04:15:21;;;;;;;35.42;24.20;;;19.20;99.90;;;;;;5033583;28;20056;-60
2023/06/29 04:17:47;;;;;;;38.55;24.42;;;19.20;99.90;;;;;;5031651;28;20049;-60
2023/06/29 04:20:13;;;;;;;37.20;24.88;;;19.20;99.90;;;;;;5032485;28;20056;-60
2023/06/29 04:22:38;;;;;;;41.15;26.02;;;19.20;99.90;;;;;;5031044;28;20033;-60
2023/06/29 04:25:05;;;;;;;38.25;25.55;;;19.20;99.90;;;;;;5031281;28;20033;-60
2023/06/29 04:27:33;;;;;;;39.70;25.80;;;19.20;99.90;;;;;;5048335;28;20037;-60
2023/06/29 04:29:59;;;;;;;36.65;25.00;;;19.30;99.90;;;;;;5030687;28;20043;-60
2023/06/29 04:32:24;;;;;;;41.25;26.27;;;19.30;99.90;;;;;;5024467;28;20033;-60
2023/06/29 04:34:50;;;;;;;43.40;26.83;;;19.30;99.90;;;;;;5029895;28;20079;-60
2023/06/29 04:37:15;;;;;;;37.40;24.83;;;19.30;99.90;;;;;;5032959;28;20041;-60
2023/06/29 04:39:41;;;;;;;36.13;25.73;;;19.30;99.90;;;;;;5032526;28;20044;-60
2023/06/29 04:42:10;;;;;;;36.78;25.58;;;19.30;99.90;;;;;;5023329;28;20814;-60
2023/06/29 04:44:37;;;;;;;39.00;25.85;;;19.40;99.90;;;;;;5031977;28;20137;-60
2023/06/29 04:47:03;;;;;;;44.40;27.67;;;19.40;99.90;;;;;;5031992;28;20057;-60
2023/06/29 04:49:36;;;;;;;41.50;25.63;;;19.40;99.90;;;;;;5031285;28;20041;-60
2023/06/29 04:52:02;;;;;;;38.25;26.38;;;19.50;99.90;;;;;;5029676;28;20049;-60
2023/06/29 04:54:28;;;;;;;38.42;25.55;;;19.60;99.90;;;;;;5030863;28;20046;-60
2023/06/29 04:56:54;;;;;;;39.35;26.17;;;19.50;99.90;;;;;;5030255;28;20097;-60
2023/06/29 04:59:25;;;;;;;41.38;25.75;;;19.70;99.90;;;;;;5024926;28;20460;-60
2023/06/29 05:01:51;;;;;;;;;;;19.80;99.90;;;;;;5028183;28;20782;-60
2023/06/29 05:04:52;;;;;;;40.63;27.58;;;19.80;99.90;;;;;;5030443;28;19964;-60
2023/06/29 05:07:18;;;;;;;40.80;26.20;;;19.90;99.90;;;;;;5023498;28;20055;-60
2023/06/29 05:09:43;;;;;;;45.75;27.45;;;19.90;99.90;;;;;;5027029;28;20033;-60
2023/06/29 05:12:09;;;;;;;44.30;26.00;;;20.00;99.90;;;;;;5028194;28;20045;-60
2023/06/29 05:14:35;;;;;;;44.92;28.35;;;20.10;99.90;;;;;;5026704;28;20052;-60
2023/06/29 05:17:00;;;;;;;42.80;27.10;;;20.10;99.90;;;;;;5029334;28;20427;-60
2023/06/29 05:19:26;;;;;;;43.63;28.15;;;20.10;99.90;;;;;;5031662;28;20482;-60
2023/06/29 05:21:52;;;;;;;42.70;27.85;;;20.10;99.90;;;;;;5027653;28;20037;-60
2023/06/29 05:24:18;;;;;;;47.03;27.95;;;20.20;99.90;;;;;;5030487;28;20034;-60
2023/06/29 05:26:43;;;;;;;45.50;28.90;;;20.10;99.90;;;;;;5024453;28;20403;-60
2023/06/29 05:29:09;;;;;;;49.63;29.15;;;20.20;99.90;;;;;;5027168;28;20041;-60
2023/06/29 05:31:34;;;;;;;47.30;29.00;;;20.20;99.90;;;;;;5029084;28;20033;-61
2023/06/29 05:34:00;;;;;;;48.15;29.88;;;20.30;99.90;;;;;;5028088;28;20106;-60
2023/06/29 05:36:26;;;;;;;50.17;30.63;;;20.30;99.90;;;;;;5030262;28;20077;-60
2023/06/29 05:38:52;;;;;;;44.92;29.92;;;20.30;99.90;;;;;;5023379;28;20045;-60
2023/06/29 05:41:18;;;;;;;48.50;30.20;;;20.40;99.90;;;;;;5030795;28;20037;-59
2023/06/29 05:43:43;;;;;;;51.47;29.95;;;20.40;99.90;;;;;;5029217;28;20041;-60
2023/06/29 05:46:09;;;;;;;46.55;30.42;;;20.50;99.90;;;;;;5032299;28;20395;-59
2023/06/29 05:48:34;;;;;;;47.33;29.45;;;20.50;99.90;;;;;;5025363;28;20033;-60
2023/06/29 05:51:00;;;;;;;46.22;30.65;;;20.60;99.90;;;;;;5024007;28;20120;-60
2023/06/29 05:53:26;;;;;;;47.70;30.02;;;20.60;99.90;;;;;;5026599;28;20033;-60
2023/06/29 05:55:51;;;;;;;44.78;29.80;;;20.60;99.90;;;;;;5028506;28;20103;-60
2023/06/29 05:58:17;;;;;;;46.25;30.55;;;20.70;99.90;;;;;;5026834;28;20059;-60
2023/06/29 06:00:42;;;;;;;46.17;29.08;;;20.60;99.90;;;;;;5022401;28;20136;-60
2023/06/29 06:03:08;;;;;;;45.80;27.88;;;20.70;99.90;;;;;;5030531;28;20471;-60
2023/06/29 06:05:34;;;;;;;45.75;28.88;;;20.70;99.90;;;;;;5030315;28;20526;-60
2023/06/29 06:07:59;;;;;;;42.45;28.83;;;20.70;99.90;;;;;;5030124;28;20041;-61
2023/06/29 06:10:25;;;;;;;45.65;29.58;;;20.80;99.90;;;;;;5030479;28;20450;-60
2023/06/29 06:12:50;;;;;;;44.22;28.65;;;20.80;99.90;;;;;;5032008;28;20116;-60
2023/06/29 06:15:16;;;;;;;48.38;29.13;;;20.90;99.90;;;;;;5031772;28;20503;-60
2023/06/29 06:17:41;;;;;;;46.33;30.10;;;20.90;99.90;;;;;;5029703;28;20044;-60
2023/06/29 06:20:10;;;;;;;46.65;29.40;;;21.00;99.90;;;;;;5031844;28;20056;-60
2023/06/29 06:22:35;;;;;;;44.92;29.27;;;21.00;99.90;;;;;;5029697;28;20030;-61
2023/06/29 06:25:01;;;;;;;50.80;29.70;;;21.00;99.90;;;;;;5029894;28;20052;-61
2023/06/29 06:27:26;;;;;;;47.97;30.52;;;21.00;99.90;;;;;;5019849;28;20088;-60
2023/06/29 06:29:55;;;;;;;48.63;31.83;;;21.00;99.90;;;;;;5023780;28;20049;-60
2023/06/29 06:32:24;;;;;;;52.03;32.30;;;21.00;99.90;;;;;;5031423;28;20060;-60
2023/06/29 06:34:52;;;;;;;54.85;31.90;;;21.00;99.90;;;;;;5031174;28;20462;-60
2023/06/29 06:37:19;;;;;;;54.97;33.35;;;21.00;99.90;;;;;;5029405;28;20049;-60
2023/06/29 06:39:44;;;;;;;53.45;31.67;;;21.00;99.90;;;;;;5030998;28;20036;-60
2023/06/29 06:42:10;;;;;;;54.15;33.83;;;21.00;99.90;;;;;;5031558;28;20403;-60
2023/06/29 06:44:48;;;;;;;49.53;31.95;;;21.00;99.90;;;;;;5031409;28;20033;-60
2023/06/29 06:47:13;;;;;;;49.00;32.88;;;21.00;99.90;;;;;;5031628;28;20381;-60
2023/06/29 06:49:40;;;;;;;47.90;31.75;;;21.00;99.90;;;;;;5030527;28;20044;-60
2023/06/29 06:52:06;;;;;;;49.28;31.23;;;21.00;99.90;;;;;;5026057;28;20052;-60
2023/06/29 06:54:31;;;;;;;47.97;31.33;;;21.00;99.90;;;;;;5029243;28;20982;-60
2023/06/29 06:56:57;;;;;;;47.50;31.10;;;21.00;99.90;;;;;;5026576;28;20065;-60
2023/06/29 06:59:23;;;;;;;48.83;30.77;;;21.00;99.90;;;;;;5031456;28;20554;-60
2023/06/29 07:01:48;;;;;;;50.03;31.10;;;21.00;99.90;;;;;;5023172;28;20096;-60
2023/06/29 07:04:14;;;;;;;47.22;31.70;;;20.90;99.90;;;;;;5029999;28;20029;-60
2023/06/29 07:06:39;;;;;;;46.10;30.45;;;20.90;99.90;;;;;;5029192;28;20201;-60
2023/06/29 07:09:07;;;;;;;47.85;30.70;;;21.00;99.90;;;;;;5031087;28;20034;-60
2023/06/29 07:11:33;;;;;;;49.72;31.15;;;21.00;99.90;;;;;;5022418;28;20037;-60
2023/06/29 07:14:00;;;;;;;47.78;30.85;;;21.00;99.90;;;;;;5030905;28;20033;-60
2023/06/29 07:16:25;;;;;;;57.00;30.63;;;21.00;99.90;;;;;;5032760;28;20067;-60
2023/06/29 07:19:03;;;;;;;49.53;31.10;;;21.10;99.90;;;;;;5033858;28;20029;-60
2023/06/29 07:21:28;;;;;;;45.92;30.05;;;21.10;99.90;;;;;;5033696;28;20045;-60
2023/06/29 07:23:54;;;;;;;45.03;29.27;;;21.20;99.90;;;;;;5033439;28;20026;-60
2023/06/29 07:26:20;;;;;;;49.47;30.63;;;21.20;99.90;;;;;;5034519;28;20030;-60
2023/06/29 07:28:46;;;;;;;47.25;29.60;;;21.30;99.90;;;;;;5034079;28;20037;-60
2023/06/29 07:31:11;;;;;;;46.08;30.40;;;21.30;99.90;;;;;;5032018;28;20037;-61
2023/06/29 07:33:37;;;;;;;49.08;28.75;;;21.40;99.90;;;;;;5028296;28;20034;-60
2023/06/29 07:36:04;;;;;;;47.22;29.98;;;21.40;99.90;;;;;;5031772;28;20164;-60
2023/06/29 07:38:30;;;;;;;49.17;31.17;;;21.50;99.90;;;;;;5029394;28;20038;-60
2023/06/29 07:40:55;;;;;;;45.67;28.30;;;21.50;99.90;;;;;;5032662;28;20041;-60
2023/06/29 07:43:23;;;;;;;47.85;30.45;;;21.60;99.90;;;;;;5033958;28;20076;-61
2023/06/29 07:45:49;;;;;;;46.65;29.02;;;21.60;99.90;;;;;;5033394;28;20045;-61
2023/06/29 07:48:14;;;;;;;45.03;28.33;;;21.70;99.90;;;;;;5033133;28;20042;-61
2023/06/29 07:50:40;;;;;;;44.88;29.27;;;21.80;99.90;;;;;;5032058;28;20038;-60
2023/06/29 07:53:08;;;;;;;42.90;29.58;;;21.80;99.90;;;;;;5033061;28;20452;-60
2023/06/29 07:55:34;;;;;;;42.83;29.50;;;21.80;99.90;;;;;;5033295;28;20163;-60
2023/06/29 07:58:00;;;;;;;42.03;28.83;;;21.80;99.90;;;;;;5030980;28;20521;-61
2023/06/29 08:00:25;;;;;;;48.20;29.85;;;21.90;99.90;;;;;;5034032;28;20030;-60
2023/06/29 08:02:51;;;;;;;46.00;29.35;;;21.90;99.90;;;;;;5034043;28;20078;-60
2023/06/29 08:05:17;;;;;;;41.97;28.75;;;22.00;99.90;;;;;;5031107;28;20701;-61
2023/06/29 08:07:43;;;;;;;46.33;29.58;;;22.00;99.90;;;;;;5030128;28;20491;-60
2023/06/29 08:10:08;;;;;;;45.13;26.98;;;22.00;99.90;;;;;;5032045;28;20048;-61
2023/06/29 08:12:34;;;;;;;41.42;27.67;;;22.10;99.90;;;;;;5029895;28;20143;-60
2023/06/29 08:15:00;;;;;;;44.08;27.10;;;22.10;99.90;;;;;;5031941;28;20088;-61
2023/06/29 08:17:29;;;;;;;46.95;27.13;;;22.10;99.90;;;;;;5032126;28;20496;-61
2023/06/29 08:19:54;;;;;;;41.45;27.63;;;22.20;99.90;;;;;;5031023;28;20061;-61
2023/06/29 08:22:20;;;;;;;47.40;28.23;;;22.20;99.90;;;;;;5026578;28;20488;-61
2023/06/29 08:24:45;;;;;;;44.67;28.27;;;22.30;99.90;;;;;;5027186;28;20117;-61
2023/06/29 08:27:11;;;;;;;40.47;27.10;;;22.30;99.90;;;;;;5030319;28;20025;-61
2023/06/29 08:29:39;;;;;;;40.00;26.45;;;22.40;99.90;;;;;;5031070;28;20623;-61
2023/06/29 08:32:06;;;;;;;45.92;27.85;;;22.40;99.90;;;;;;5032037;28;20073;-61
2023/06/29 08:34:31;;;;;;;39.92;26.63;;;22.50;99.90;;;;;;5032914;28;20037;-61
2023/06/29 08:36:57;;;;;;;38.78;25.60;;;22.50;99.90;;;;;;5032517;28;20064;-61
2023/06/29 08:39:23;;;;;;;39.25;25.33;;;22.50;99.90;;;;;;5032225;28;20068;-61
2023/06/29 08:41:48;;;;;;;42.92;26.02;;;22.50;99.90;;;;;;5030945;28;20064;-61
2023/06/29 08:44:14;;;;;;;38.58;25.58;;;22.50;99.90;;;;;;5030353;28;20029;-60
2023/06/29 08:46:43;;;;;;;41.92;25.50;;;22.50;99.90;;;;;;5025603;28;20033;-61
2023/06/29 08:49:12;;;;;;;39.95;25.85;;;22.50;99.90;;;;;;5031865;28;20407;-61
2023/06/29 08:51:40;;;;;;;42.17;24.23;;;22.60;99.90;;;;;;5031662;28;20036;-61
2023/06/29 08:54:07;;;;;;;39.88;23.65;;;22.70;99.90;;;;;;5022606;28;20602;-61
2023/06/29 08:56:33;;;;;;;39.80;23.27;;;22.70;99.90;;;;;;5032302;28;20037;-61
2023/06/29 08:58:59;;;;;;;43.60;24.40;;;22.80;99.90;;;;;;5030977;28;20033;-61
2023/06/29 09:01:26;;;;;;;36.65;23.70;;;22.90;99.90;;;;;;5023932;28;20056;-61
2023/06/29 09:03:52;;;;;;;39.42;23.58;;;23.00;99.90;;;;;;5028336;28;20536;-61
2023/06/29 09:06:18;;;;;;;38.83;24.60;;;23.10;99.90;;;;;;5025509;28;20041;-61
2023/06/29 09:08:44;;;;;;;39.55;23.85;;;23.20;99.90;;;;;;5030589;28;20056;-61
2023/06/29 09:11:09;;;;;;;44.30;23.92;;;23.20;99.90;;;;;;5028806;28;20033;-61
2023/06/29 09:13:36;;;;;;;43.35;24.67;;;23.30;99.90;;;;;;5031223;28;20037;-61
2023/06/29 09:16:03;;;;;;;43.28;24.48;;;23.30;99.90;;;;;;5030566;28;20120;-61
2023/06/29 09:18:29;;;;;;;38.00;23.95;;;23.30;99.90;;;;;;5029882;28;20120;-61
2023/06/29 09:20:55;;;;;;;39.55;23.40;;;23.30;99.90;;;;;;5031194;28;20044;-61
2023/06/29 09:23:21;;;;;;;38.95;22.95;;;23.30;99.90;;;;;;5024395;28;20403;-61
2023/06/29 09:25:49;;;;;;;36.42;22.75;;;23.30;99.90;;;;;;5031891;28;20148;-61
2023/06/29 09:28:15;;;;;;;40.35;25.27;;;23.30;99.90;;;;;;5022680;28;20041;-61
2023/06/29 09:30:41;;;;;;;35.45;22.80;;;23.30;99.90;;;;;;5032010;28;20106;-61
2023/06/29 09:33:08;;;;;;;45.33;24.67;;;23.30;99.90;;;;;;5030480;28;20099;-61
2023/06/29 09:35:39;;;;;;;41.35;24.02;;;23.20;99.90;;;;;;5030620;28;20045;-61
2023/06/29 09:38:05;;;;;;;37.35;23.92;;;23.20;99.90;;;;;;5016751;28;20566;-61
2023/06/29 09:40:30;;;;;;;37.83;24.15;;;23.20;99.90;;;;;;5024343;28;20120;-61
2023/06/29 09:42:56;;;;;;;38.60;23.80;;;23.20;99.90;;;;;;5028642;28;20080;-61
2023/06/29 09:45:28;;;;;;;39.50;24.98;;;23.20;99.90;;;;;;5025099;28;20511;-61
2023/06/29 09:47:53;;;;;;;35.67;23.25;;;23.20;99.90;;;;;;5025795;28;20033;-61
2023/06/29 09:50:21;;;;;;;37.35;24.73;;;23.10;99.90;;;;;;5021022;28;20044;-61
2023/06/29 09:52:51;;;;;;;36.22;23.88;;;23.10;99.90;;;;;;5028538;28;20041;-61
2023/06/29 09:55:17;;;;;;;35.55;23.33;;;23.00;99.90;;;;;;5024991;28;20042;-61
2023/06/29 09:57:49;;;;;;;38.92;23.00;;;22.90;99.90;;;;;;5030444;28;20048;-61
2023/06/29 10:00:15;;;;;;;33.00;22.35;;;22.80;99.90;;;;;;5027490;28;20029;-62
2023/06/29 10:02:41;;;;;;;37.83;23.08;;;22.70;99.90;;;;;;5030842;28;20048;-61
2023/06/29 10:05:09;;;;;;;36.55;23.00;;;22.70;99.90;;;;;;5027903;28;20045;-61
2023/06/29 10:07:36;;;;;;;33.92;22.60;;;22.60;99.90;;;;;;5028385;28;20619;-61
2023/06/29 10:10:04;;;;;;;37.42;24.88;;;22.60;99.90;;;;;;5029713;28;20136;-61
2023/06/29 10:12:31;;;;;;;34.65;21.67;;;22.50;99.90;;;;;;5026212;28;20396;-61
2023/06/29 10:15:11;;;;;;;38.70;23.30;;;22.40;99.90;;;;;;5026354;28;20034;-61
2023/06/29 10:17:52;;;;;;;;;;;22.40;99.90;;;;;;5026149;28;20068;-61
2023/06/29 10:20:20;;;;;;;41.60;23.63;;;22.30;99.90;;;;;;5024436;28;19974;-61
2023/06/29 10:22:47;;;;;;;37.85;25.27;;;22.20;99.90;;;;;;5023857;28;20132;-61
2023/06/29 10:25:18;;;;;;;37.17;23.70;;;22.20;99.90;;;;;;5026461;28;20506;-61
2023/06/29 10:27:45;;;;;;;37.60;23.70;;;22.10;99.90;;;;;;5027235;28;20037;-61
2023/06/29 10:30:11;;;;;;;35.80;23.55;;;22.00;99.90;;;;;;5028159;28;20476;-61
2023/06/29 10:32:40;;;;;;;38.25;24.17;;;22.00;99.90;;;;;;5028557;28;20043;-61
2023/06/29 10:35:09;;;;;;;36.35;23.17;;;22.00;99.90;;;;;;5028578;28;20044;-61
2023/06/29 10:37:37;;;;;;;37.55;22.75;;;22.00;99.90;;;;;;5025386;28;20045;-61
2023/06/29 10:40:24;;;;;;;36.20;23.52;;;21.90;99.90;;;;;;5020959;28;20061;-61
2023/06/29 10:42:51;;;;;;;39.60;22.88;;;21.90;99.90;;;;;;5026366;28;20171;-60
2023/06/29 10:45:17;;;;;;;38.95;24.00;;;21.90;99.90;;;;;;5021613;28;20033;-61
2023/06/29 10:47:43;;;;;;;37.60;23.20;;;21.90;99.90;;;;;;5032017;28;20411;-61
2023/06/29 10:50:08;;;;;;;36.95;23.17;;;21.90;99.90;;;;;;5033509;28;20575;-60
2023/06/29 10:52:35;;;;;;;39.03;24.35;;;21.90;99.90;;;;;;5030434;28;20116;-61
2023/06/29 10:55:23;;;;;;;40.72;23.80;;;21.90;99.90;;;;;;5027488;28;20483;-61
2023/06/29 10:57:57;;;;;;;37.83;23.63;;;22.00;99.90;;;;;;5032363;28;20042;-61
2023/06/29 11:00:25;;;;;;;41.22;26.08;;;22.00;99.90;;;;;;5034849;28;20033;-61
2023/06/29 11:02:52;;;;;;;37.85;25.02;;;22.00;99.90;;;;;;5031082;28;20084;-61
2023/06/29 11:05:19;;;;;;;40.30;24.38;;;22.10;99.90;;;;;;5026150;28;20037;-61
2023/06/29 11:07:49;;;;;;;39.35;24.13;;;22.10;99.90;;;;;;5034140;28;20561;-61
2023/06/29 11:10:14;;;;;;;41.25;25.92;;;22.20;99.90;;;;;;5027700;28;21861;-61
2023/06/29 11:12:41;;;;;;;45.25;27.35;;;22.40;99.90;;;;;;5025664;28;20045;-61
2023/06/29 11:15:14;;;;;;;51.35;28.20;;;22.60;99.90;;;;;;5033227;28;20112;-61
2023/06/29 11:17:41;;;;;;;44.03;27.55;;;22.70;99.90;;;;;;5032514;28;20049;-61
2023/06/29 11:20:12;;;;;;;49.35;28.83;;;22.80;99.90;;;;;;5033792;28;20068;-61
2023/06/29 11:22:37;;;;;;;53.40;29.30;;;22.90;99.90;;;;;;5034198;28;20483;-60
2023/06/29 11:25:03;;;;;;;46.85;27.80;;;22.90;99.90;;;;;;5022861;28;20132;-61
2023/06/29 11:27:29;;;;;;;42.95;27.50;;;22.90;99.90;;;;;;5034161;28;20067;-61
2023/06/29 11:29:57;;;;;;;51.90;28.20;;;22.90;99.90;;;;;;5032678;28;20450;-61
2023/06/29 11:32:25;;;;;;;45.70;27.98;;;23.10;99.90;;;;;;5049199;28;20491;-61
2023/06/29 11:35:00;;;;;;;41.47;26.55;;;23.30;99.90;;;;;;5032664;28;20060;-61
2023/06/29 11:37:27;;;;;;;31.58;21.55;;;23.50;99.90;;;;;;5034555;28;20172;-61
2023/06/29 11:39:53;;;;;;;31.67;20.35;;;23.60;99.90;;;;;;5022766;28;20034;-61
2023/06/29 11:42:21;;;;;;;35.15;21.85;;;23.70;99.90;;;;;;5032029;28;20033;-61
2023/06/29 11:45:09;;;;;;;37.42;23.52;;;23.80;99.90;;;;;;5034154;28;20072;-61
2023/06/29 11:47:37;;;;;;;36.13;23.05;;;24.10;99.90;;;;;;5026663;28;20068;-61
2023/06/29 11:50:07;;;;;;;34.53;21.98;;;24.30;99.90;;;;;;5032493;28;20045;-60
2023/06/29 11:52:33;;;;;;;28.90;19.67;;;24.40;99.90;;;;;;5031559;28;20491;-61
2023/06/29 11:55:04;;;;;;;32.25;20.40;;;24.40;99.90;;;;;;5027986;28;20522;-61
2023/06/29 11:57:33;;;;;;;;;;;24.50;99.90;;;;;;5033466;28;20124;-61
2023/06/29 12:00:00;;;;;;;31.48;19.77;;;24.60;99.90;;;;;;5027361;28;19925;-61
2023/06/29 12:02:27;;;;;;;28.33;19.33;;;24.70;99.90;;;;;;5033620;28;20395;-61
2023/06/29 12:05:01;;;;;;;29.52;20.27;;;24.80;99.90;;;;;;5016792;28;20034;-61
2023/06/29 12:07:44;;;;;;;30.35;20.15;;;25.00;99.90;;;;;;5027932;28;20037;-61
2023/06/29 12:10:12;;;;;;;31.83;20.60;;;25.10;99.90;;;;;;5032705;28;20045;-61
2023/06/29 12:12:55;;;;;;;29.38;18.80;;;25.20;99.90;;;;;;5032574;28;20037;-61
2023/06/29 12:15:25;;;;;;;27.10;17.75;;;25.30;99.90;;;;;;5020416;28;20372;-62
2023/06/29 12:17:53;;;;;;;28.73;17.92;;;25.40;99.90;;;;;;5028103;28;20479;-61
2023/06/29 12:20:24;;;;;;;29.00;18.52;;;25.50;99.90;;;;;;5023600;28;20037;-62
2023/06/29 12:22:54;;;;;;;35.30;19.35;;;25.40;99.90;;;;;;5033620;28;20079;-62
2023/06/29 12:25:21;;;;;;;32.75;20.35;;;25.30;99.90;;;;;;5029614;28;20042;-61
2023/06/29 12:27:48;;;;;;;26.65;17.92;;;25.20;99.90;;;;;;5031809;28;20037;-61